Terminal Aerodrome Forecast
Issued by NWS

Current Version | Previous Version | Text Only | Print | Product List | Glossary On
Versions: 1 2 3 4 5 6 7 8 9 10 11 12 13 14 15 16 17 18 19 20 21 22 23 24 25 26 27 28 29 30 31 32
000 FTUS41 KBOX 280524 TAFBAF TAF KBAF 280524Z 2806/2906 00000KT P6SM SKC FM281400 23005KT P6SM FEW045 FM281900 23005KT P6SM BKN045 FM290100 00000KT P6SM BKN070=

USA.gov is the U.S. government's official web portal to all federal, state and local government web resources and services.